createdAt,value
2018-02-02T00:01:36.755Z,3.60
2018-02-02T00:04:05.755Z,3.15
2018-02-02T00:06:34.712Z,3.22
2018-02-02T00:20:55.093Z,3.15
2018-02-02T00:23:23.977Z,5.25
2018-02-02T00:25:52.238Z,2.87
2018-02-02T00:28:20.382Z,3.10
2018-02-02T00:30:48.724Z,3.20
2018-02-02T00:33:17.694Z,3.00
2018-02-02T00:35:45.876Z,2.80
2018-02-02T00:38:14.100Z,3.10
2018-02-02T00:40:42.295Z,3.53
2018-02-02T00:43:10.488Z,4.22
2018-02-02T00:45:38.686Z,3.10
2018-02-02T00:48:07.687Z,4.78
2018-02-02T00:53:42.089Z,3.70
2018-02-02T00:56:10.284Z,2.90
2018-02-02T00:58:39.251Z,3.33
2018-02-02T01:01:07.452Z,3.65
2018-02-02T01:03:36.438Z,2.90
2018-02-02T01:06:05.426Z,3.33
2018-02-02T01:08:34.492Z,3.72
2018-02-02T01:11:02.692Z,3.65
2018-02-02T01:13:31.673Z,5.62
2018-02-02T01:15:59.853Z,3.97
2018-02-02T01:18:28.034Z,3.92
2018-02-02T01:20:57.048Z,3.90
2018-02-02T01:23:25.252Z,3.47
2018-02-02T01:25:53.435Z,3.60
2018-02-02T01:28:21.645Z,3.95
2018-02-02T01:30:50.584Z,3.78
2018-02-02T01:33:18.763Z,4.10
2018-02-02T01:35:47.325Z,3.78
2018-02-02T01:38:15.547Z,4.60
2018-02-02T01:40:43.751Z,4.10
2018-02-02T01:43:11.953Z,3.97
2018-02-02T01:45:40.524Z,4.12
2018-02-02T01:48:20.844Z,3.53
2018-02-02T01:50:50.884Z,4.28
2018-02-02T01:53:19.148Z,3.67
2018-02-02T01:55:48.196Z,4.00
2018-02-02T01:58:16.396Z,4.07
2018-02-02T02:00:44.597Z,3.80
2018-02-02T02:03:13.565Z,4.60
2018-02-02T02:05:41.765Z,4.28
2018-02-02T02:08:09.984Z,5.07
2018-02-02T02:10:38.193Z,4.57
2018-02-02T02:13:07.184Z,3.87
2018-02-02T02:15:36.182Z,3.70
2018-02-02T02:18:05.169Z,4.30
2018-02-02T02:20:34.174Z,5.10
2018-02-02T02:23:03.124Z,4.20
2018-02-02T02:25:31.342Z,5.30
2018-02-02T02:27:59.547Z,5.10
2018-02-02T02:30:27.751Z,4.97
2018-02-02T02:32:56.061Z,6.10
2018-02-02T02:35:24.247Z,4.80
2018-02-02T02:37:52.449Z,4.55
2018-02-02T02:40:20.673Z,4.80
2018-02-02T02:42:49.640Z,4.55
2018-02-02T02:45:17.856Z,5.05
2018-02-02T02:47:46.050Z,4.22
2018-02-02T02:50:14.400Z,5.72
2018-02-02T02:52:43.369Z,5.30
2018-02-02T02:55:11.644Z,5.80
2018-02-02T02:57:39.865Z,5.20
2018-02-02T03:00:08.051Z,5.43
2018-02-02T03:02:36.249Z,5.60
2018-02-02T03:05:04.472Z,5.82
2018-02-02T03:07:33.284Z,5.35
2018-02-02T03:10:01.709Z,6.00
2018-02-02T03:12:29.912Z,5.45
2018-02-02T03:14:58.123Z,5.30
2018-02-02T03:17:26.452Z,6.15
2018-02-02T03:19:55.480Z,5.80
2018-02-02T03:22:23.704Z,5.15
2018-02-02T03:24:51.904Z,5.65
2018-02-02T03:27:20.108Z,6.07
2018-02-02T03:29:48.336Z,5.65
2018-02-02T03:32:17.832Z,5.70
2018-02-02T03:34:46.778Z,6.78
2018-02-02T03:37:15.016Z,5.90
2018-02-02T03:39:43.193Z,5.90
2018-02-02T03:42:11.373Z,5.68
2018-02-02T03:44:39.644Z,5.93
2018-02-02T03:47:07.856Z,5.45
2018-02-02T03:49:36.052Z,6.25
2018-02-02T03:52:04.300Z,5.93
2018-02-02T03:54:32.474Z,5.43
2018-02-02T03:57:00.720Z,5.25
2018-02-02T03:59:28.917Z,6.10
2018-02-02T04:01:57.129Z,6.28
2018-02-02T04:04:25.338Z,5.05
2018-02-02T04:06:53.508Z,6.37
2018-02-02T04:09:21.698Z,6.15
2018-02-02T04:11:49.920Z,5.90
2018-02-02T04:14:18.106Z,7.03
2018-02-02T04:16:47.156Z,6.37
2018-02-02T04:19:15.320Z,6.45
2018-02-02T04:21:43.872Z,6.00
2018-02-02T04:24:12.088Z,6.75
2018-02-02T04:26:40.268Z,6.40
2018-02-02T04:29:08.505Z,6.78
2018-02-02T04:31:36.756Z,7.37
2018-02-02T04:34:05.728Z,7.50
2018-02-02T04:36:33.959Z,7.43
2018-02-02T04:39:02.141Z,6.70
2018-02-02T04:41:30.364Z,6.30
2018-02-02T04:43:59.352Z,6.55
2018-02-02T04:46:28.321Z,7.10
2018-02-02T04:48:56.522Z,8.32
2018-02-02T04:51:25.508Z,8.65
2018-02-02T04:53:54.472Z,6.55
2018-02-02T04:56:22.676Z,7.55
2018-02-02T04:58:51.655Z,6.12
2018-02-02T05:01:19.872Z,7.32
2018-02-02T05:03:48.062Z,7.20
2018-02-02T05:06:16.261Z,7.53
2018-02-02T05:08:44.464Z,7.30
2018-02-02T05:11:13.624Z,7.07
2018-02-02T05:13:41.820Z,7.18
2018-02-02T05:16:10.221Z,7.97
2018-02-02T05:18:38.434Z,8.10
2018-02-02T05:21:06.609Z,7.03
2018-02-02T05:23:34.833Z,7.18
2018-02-02T05:26:03.816Z,8.10
2018-02-02T05:28:32.780Z,7.72
2018-02-02T05:31:00.980Z,7.47
2018-02-02T05:33:29.156Z,7.80
2018-02-02T05:35:58.157Z,8.05
2018-02-02T05:38:27.148Z,8.43
2018-02-02T05:40:56.143Z,8.07
2018-02-02T05:43:25.088Z,8.48
2018-02-02T05:45:53.288Z,8.40
2018-02-02T05:48:21.501Z,7.90
2018-02-02T05:50:49.674Z,8.52
2018-02-02T05:53:17.891Z,6.93
2018-02-02T05:55:46.101Z,7.32
2018-02-02T05:58:15.064Z,8.02
2018-02-02T06:00:43.281Z,7.45
2018-02-02T06:03:11.484Z,6.90
2018-02-02T06:05:39.684Z,7.10
2018-02-02T06:08:07.904Z,7.82
2018-02-02T06:10:36.080Z,7.35
2018-02-02T06:13:04.281Z,8.63
2018-02-02T06:15:32.508Z,7.18
2018-02-02T06:18:01.478Z,7.80
2018-02-02T06:20:30.233Z,7.40
2018-02-02T06:22:58.929Z,7.50
2018-02-02T06:25:27.108Z,7.00
2018-02-02T06:27:55.330Z,7.50
2018-02-02T06:30:23.549Z,8.95
2018-02-02T06:32:51.723Z,8.60
2018-02-02T06:35:19.925Z,7.65
2018-02-02T06:37:48.916Z,8.02
2018-02-02T06:40:17.889Z,8.50
2018-02-02T06:42:46.095Z,9.07
2018-02-02T06:45:15.046Z,7.40
2018-02-02T06:47:43.413Z,8.00
2018-02-02T06:50:11.613Z,7.95
2018-02-02T06:52:39.818Z,6.97
2018-02-02T06:55:08.027Z,7.80
2018-02-02T06:57:36.228Z,7.43
2018-02-02T07:00:04.434Z,7.43
2018-02-02T07:02:33.377Z,7.25
2018-02-02T07:05:01.580Z,6.70
2018-02-02T07:07:29.832Z,7.62
2018-02-02T07:09:58.036Z,8.77
2018-02-02T07:12:27.012Z,7.40
2018-02-02T07:14:55.213Z,7.57
2018-02-02T07:17:24.205Z,6.75
2018-02-02T07:19:53.181Z,7.43
2018-02-02T07:22:21.384Z,7.05
2018-02-02T07:24:49.568Z,6.10
2018-02-02T07:27:17.781Z,6.15
2018-02-02T07:29:45.962Z,6.53
2018-02-02T07:32:14.160Z,7.45
2018-02-02T07:34:43.139Z,6.30
2018-02-02T07:37:11.320Z,7.15
2018-02-02T07:39:39.493Z,5.75
2018-02-02T07:42:08.487Z,5.60
2018-02-02T07:44:37.671Z,6.43
2018-02-02T07:47:05.940Z,5.75
2018-02-02T07:49:34.225Z,5.87
2018-02-02T07:52:02.499Z,6.05
2018-02-02T07:54:31.476Z,6.20
2018-02-02T07:56:59.687Z,5.43
2018-02-02T07:59:27.908Z,5.50
2018-02-02T08:01:56.116Z,5.28
2018-02-02T08:04:25.097Z,5.62
2018-02-02T08:06:53.298Z,5.70
2018-02-02T08:09:21.486Z,5.22
2018-02-02T08:11:49.704Z,6.00
2018-02-02T08:14:17.913Z,6.47
2018-02-02T08:16:46.908Z,5.10
2018-02-02T08:19:15.867Z,5.22
2018-02-02T08:21:44.051Z,4.53
2018-02-02T08:24:12.348Z,6.07
2018-02-02T08:26:41.312Z,5.30
2018-02-02T08:29:09.504Z,5.32
2018-02-02T08:31:38.472Z,6.28
2018-02-02T08:34:06.658Z,5.57
2018-02-02T08:36:35.056Z,5.07
2018-02-02T08:39:04.021Z,5.60
2018-02-02T08:41:32.197Z,5.68
2018-02-02T08:44:00.398Z,4.40
2018-02-02T08:46:29.361Z,5.18
2018-02-02T08:48:57.578Z,6.10
2018-02-02T08:51:25.897Z,5.03
2018-02-02T08:53:54.306Z,4.75
2018-02-02T08:56:23.280Z,4.90
2018-02-02T08:58:51.460Z,4.80
2018-02-02T09:01:25.372Z,4.20
2018-02-02T09:03:54.401Z,4.70
2018-02-02T09:06:22.596Z,4.60
2018-02-02T09:08:50.819Z,3.90
2018-02-02T09:11:19.779Z,4.87
2018-02-02T09:13:48.173Z,4.90
2018-02-02T09:16:16.348Z,4.37
2018-02-02T09:18:44.524Z,4.55
2018-02-02T09:21:12.749Z,4.20
2018-02-02T09:23:40.960Z,4.85
2018-02-02T09:26:09.988Z,4.47
2018-02-02T09:28:38.189Z,4.12
2018-02-02T09:31:06.635Z,3.95
2018-02-02T09:33:34.843Z,3.92
2018-02-02T09:36:03.048Z,4.50
2018-02-02T09:38:31.356Z,4.40
2018-02-02T09:41:00.308Z,3.90
2018-02-02T09:43:28.548Z,4.18
2018-02-02T09:45:56.761Z,6.30
2018-02-02T09:48:24.950Z,9.82
2018-02-02T09:50:53.172Z,5.60
2018-02-02T09:53:21.377Z,4.28
2018-02-02T09:55:49.565Z,4.50
2018-02-02T09:58:17.789Z,4.75
2018-02-02T10:00:45.965Z,3.62
2018-02-02T10:03:14.251Z,3.47
2018-02-02T10:05:42.486Z,4.03
2018-02-02T10:08:11.437Z,4.15
2018-02-02T10:10:39.617Z,3.95
2018-02-02T10:13:07.838Z,3.95
2018-02-02T10:15:36.040Z,4.18
2018-02-02T10:18:04.927Z,4.15
2018-02-02T10:20:33.138Z,3.87
2018-02-02T10:23:02.057Z,4.03
2018-02-02T10:25:30.267Z,3.55
2018-02-02T10:27:58.472Z,3.72
2018-02-02T10:30:26.877Z,3.80
2018-02-02T10:32:55.064Z,3.83
2018-02-02T10:35:23.785Z,3.97
2018-02-02T10:37:52.112Z,3.22
2018-02-02T10:40:20.321Z,3.58
2018-02-02T10:42:48.508Z,3.85
2018-02-02T10:45:16.737Z,3.95
2018-02-02T10:47:44.961Z,3.28
2018-02-02T10:50:13.160Z,3.62
2018-02-02T10:52:41.400Z,3.80
2018-02-02T10:55:09.608Z,4.00
2018-02-02T10:57:38.589Z,4.12
2018-02-02T11:00:06.815Z,4.20
2018-02-02T11:02:40.552Z,4.00
2018-02-02T11:05:08.756Z,4.55
2018-02-02T11:07:37.744Z,4.28
2018-02-02T11:10:06.745Z,3.67
2018-02-02T11:12:35.717Z,4.32
2018-02-02T11:15:03.916Z,3.90
2018-02-02T11:17:32.904Z,4.12
2018-02-02T11:20:01.885Z,3.85
2018-02-02T11:22:30.889Z,3.72
2018-02-02T11:24:59.177Z,4.15
2018-02-02T11:27:27.572Z,7.10
2018-02-02T11:29:55.801Z,4.00
2018-02-02T11:32:23.990Z,4.10
2018-02-02T11:34:52.981Z,3.87
2018-02-02T11:37:21.940Z,4.03
2018-02-02T11:39:50.176Z,4.05
2018-02-02T11:42:18.369Z,3.70
2018-02-02T11:44:46.556Z,3.90
2018-02-02T11:47:14.765Z,3.80
2018-02-02T11:49:43.772Z,3.10
2018-02-02T11:52:11.982Z,4.22
2018-02-02T11:54:40.177Z,3.65
2018-02-02T11:57:08.380Z,3.80
2018-02-02T11:59:37.329Z,4.37
2018-02-02T12:02:05.535Z,4.15
2018-02-02T12:04:33.735Z,3.80
2018-02-02T12:07:01.964Z,3.95
2018-02-02T12:09:30.173Z,3.90
2018-02-02T12:11:59.131Z,3.10
2018-02-02T12:14:27.533Z,3.35
2018-02-02T12:16:56.506Z,3.22
2018-02-02T12:19:24.738Z,3.35
2018-02-02T12:21:56.253Z,4.30
2018-02-02T12:27:50.173Z,3.80
2018-02-02T12:33:36.180Z,3.70
2018-02-02T12:36:09.873Z,4.07
2018-02-02T12:38:38.544Z,4.35
2018-02-02T12:41:07.490Z,4.10
2018-02-02T12:43:35.725Z,4.47
2018-02-02T12:46:03.911Z,3.33
2018-02-02T12:48:41.176Z,4.35
2018-02-02T12:51:16.943Z,4.28
2018-02-02T12:53:45.150Z,3.60
2018-02-02T12:56:13.353Z,4.12
2018-02-02T12:58:41.656Z,4.93
2018-02-02T13:01:09.868Z,3.45
2018-02-02T13:03:38.054Z,4.12
2018-02-02T13:06:06.272Z,3.62
2018-02-02T13:08:35.256Z,4.25
2018-02-02T13:11:05.083Z,3.90
2018-02-02T13:13:33.277Z,4.32
2018-02-02T13:16:01.504Z,4.22
2018-02-02T13:18:29.806Z,3.83
2018-02-02T13:20:58.209Z,4.12
2018-02-02T13:23:26.436Z,3.80
2018-02-02T13:25:55.429Z,3.58
2018-02-02T13:28:24.377Z,4.55
2018-02-02T13:30:52.585Z,4.50
2018-02-02T13:33:21.616Z,3.90
2018-02-02T13:35:49.832Z,3.67
2018-02-02T13:38:18.140Z,3.83
2018-02-02T13:40:47.128Z,3.67
2018-02-02T13:43:16.100Z,3.30
2018-02-02T13:45:44.654Z,3.50
2018-02-02T13:48:13.097Z,3.17
2018-02-02T13:50:41.318Z,4.10
2018-02-02T13:53:09.521Z,3.37
2018-02-02T13:55:37.725Z,3.25
2018-02-02T13:58:05.945Z,3.70
2018-02-02T14:00:34.153Z,4.22
2018-02-02T14:03:03.201Z,3.42
2018-02-02T14:05:31.421Z,4.00
2018-02-02T14:08:00.388Z,3.58
2018-02-02T14:10:28.608Z,3.45
2018-02-02T14:12:56.832Z,4.45
2018-02-02T14:15:25.044Z,3.60
2018-02-02T14:17:54.001Z,2.70
2018-02-02T14:20:22.205Z,2.72
2018-02-02T14:22:51.184Z,3.50
2018-02-02T14:25:20.072Z,3.92
2018-02-02T14:27:48.344Z,3.00
2018-02-02T14:30:16.532Z,3.30
2018-02-02T14:32:45.508Z,3.33
2018-02-02T14:35:13.815Z,3.58
2018-02-02T14:37:42.010Z,4.30
2018-02-02T14:40:10.433Z,3.72
2018-02-02T14:42:38.701Z,3.05
2018-02-02T14:45:06.910Z,3.30
2018-02-02T14:47:35.123Z,3.45
2018-02-02T14:50:03.368Z,4.60
2018-02-02T14:52:31.572Z,3.78
2018-02-02T14:54:59.780Z,3.75
2018-02-02T14:57:28.741Z,3.40
2018-02-02T14:59:56.924Z,4.35
2018-02-02T15:02:25.145Z,3.22
2018-02-02T15:04:54.113Z,4.43
2018-02-02T15:07:22.321Z,2.97
2018-02-02T15:09:50.591Z,2.97
2018-02-02T15:12:18.862Z,3.40
2018-02-02T15:14:47.248Z,4.15
2018-02-02T15:17:15.449Z,3.05
2018-02-02T15:19:43.628Z,3.40
2018-02-02T15:22:12.584Z,3.28
2018-02-02T15:24:40.788Z,3.22
2018-02-02T15:27:08.977Z,3.50
2018-02-02T15:29:37.212Z,3.65
2018-02-02T15:32:05.419Z,3.00
2018-02-02T15:34:33.601Z,3.45
2018-02-02T15:37:01.906Z,4.10
2018-02-02T15:39:30.882Z,4.35
2018-02-02T15:41:59.192Z,3.00
2018-02-02T15:44:27.408Z,3.17
2018-02-02T15:46:55.600Z,4.32
2018-02-02T15:49:23.806Z,3.40
2018-02-02T15:51:52.882Z,4.10
2018-02-02T15:54:21.165Z,3.55
2018-02-02T15:56:49.395Z,4.00
2018-02-02T15:59:17.632Z,4.50
2018-02-02T16:01:45.812Z,4.90
2018-02-02T16:04:14.029Z,4.25
2018-02-02T16:06:42.231Z,4.12
2018-02-02T16:09:10.449Z,4.35
2018-02-02T16:11:38.629Z,4.47
2018-02-02T16:14:06.869Z,4.40
2018-02-02T16:16:36.049Z,4.50
2018-02-02T16:19:05.034Z,4.80
2018-02-02T16:21:33.220Z,4.85
2018-02-02T16:24:02.190Z,3.70
2018-02-02T16:26:31.048Z,4.37
2018-02-02T16:28:59.249Z,4.07
2018-02-02T16:31:27.456Z,4.20
2018-02-02T16:33:55.696Z,4.18
2018-02-02T16:36:23.877Z,4.40
2018-02-02T16:38:52.057Z,4.07
2018-02-02T16:41:20.288Z,4.65
2018-02-02T16:43:48.483Z,4.90
2018-02-02T16:46:16.709Z,4.70
2018-02-02T16:48:44.971Z,5.68
2018-02-02T16:51:13.960Z,4.70
2018-02-02T16:53:43.009Z,5.25
2018-02-02T16:56:11.287Z,5.70
2018-02-02T16:58:40.399Z,5.82
2018-02-02T17:01:08.581Z,5.25
2018-02-02T17:03:36.857Z,6.15
2018-02-02T17:06:05.055Z,6.30
2018-02-02T17:08:33.241Z,5.85
2018-02-02T17:11:01.449Z,6.18
2018-02-02T17:13:30.177Z,6.25
2018-02-02T17:15:59.129Z,6.57
2018-02-02T17:18:27.470Z,6.45
2018-02-02T17:20:55.684Z,6.05
2018-02-02T17:23:23.889Z,6.03
2018-02-02T17:25:52.876Z,7.05
2018-02-02T17:28:21.076Z,7.15
2018-02-02T17:30:49.287Z,7.70
2018-02-02T17:33:17.484Z,11.05
2018-02-02T17:35:46.384Z,12.43
2018-02-02T17:38:14.590Z,8.05
2018-02-02T17:40:42.833Z,14.80
2018-02-02T17:43:11.077Z,10.77
2018-02-02T17:45:39.281Z,8.55
2018-02-02T17:48:07.578Z,8.57
2018-02-02T17:50:36.545Z,7.62
2018-02-02T17:53:04.777Z,6.90
2018-02-02T17:55:33.002Z,6.87
2018-02-02T17:58:01.996Z,7.07
2018-02-02T18:00:34.328Z,7.18
2018-02-02T18:03:07.713Z,8.32
2018-02-02T18:05:36.031Z,6.82
2018-02-02T18:08:04.262Z,8.65
2018-02-02T18:10:32.449Z,7.75
2018-02-02T18:13:00.649Z,7.75
2018-02-02T18:15:28.859Z,7.57
2018-02-02T18:17:57.077Z,8.55
2018-02-02T18:20:25.253Z,6.97
2018-02-02T18:22:53.472Z,7.12
2018-02-02T18:25:22.290Z,7.15
2018-02-02T18:27:50.480Z,7.20
2018-02-02T18:30:18.714Z,7.80
2018-02-02T18:32:46.920Z,8.15
2018-02-02T18:35:15.149Z,6.95
2018-02-02T18:37:43.357Z,7.55
2018-02-02T18:40:11.553Z,7.40
2018-02-02T18:42:40.029Z,7.78
2018-02-02T18:45:08.260Z,7.22
2018-02-02T18:47:36.470Z,7.45
2018-02-02T18:50:04.684Z,8.02
2018-02-02T18:52:33.772Z,6.93
2018-02-02T18:55:01.973Z,7.90
2018-02-02T18:57:30.248Z,7.55
2018-02-02T19:00:09.684Z,6.40
2018-02-02T19:02:37.867Z,7.45
2018-02-02T19:05:06.137Z,7.03
2018-02-02T19:07:34.388Z,8.18
2018-02-02T19:10:03.404Z,7.12
2018-02-02T19:12:31.604Z,7.10
2018-02-02T19:14:59.802Z,7.78
2018-02-02T19:17:28.028Z,8.18
2018-02-02T19:19:56.205Z,7.22
2018-02-02T19:22:24.448Z,8.30
2018-02-02T19:24:52.621Z,7.85
2018-02-02T19:27:20.942Z,9.23
2018-02-02T19:29:49.125Z,8.52
2018-02-02T19:32:17.334Z,8.25
2018-02-02T19:34:45.649Z,8.65
2018-02-02T19:37:13.881Z,7.53
2018-02-02T19:39:42.223Z,7.55
2018-02-02T19:42:10.422Z,7.68
2018-02-02T19:44:38.613Z,7.80
2018-02-02T19:47:06.824Z,8.73
2018-02-02T19:49:35.001Z,6.90
2018-02-02T19:52:03.201Z,8.90
2018-02-02T19:54:31.528Z,7.65
2018-02-02T19:57:02.483Z,8.70
2018-02-02T19:59:30.680Z,8.25
2018-02-02T20:01:58.922Z,8.38
2018-02-02T20:04:27.128Z,8.98
2018-02-02T20:06:55.348Z,8.25
2018-02-02T20:09:24.337Z,8.02
2018-02-02T20:11:53.348Z,7.68
2018-02-02T20:14:22.342Z,8.50
2018-02-02T20:16:51.300Z,8.20
2018-02-02T20:19:19.502Z,7.70
2018-02-02T20:21:48.676Z,7.37
2018-02-02T20:24:16.857Z,8.02
2018-02-02T20:26:45.037Z,7.05
2018-02-02T20:29:14.028Z,6.85
2018-02-02T20:31:43.025Z,7.97
2018-02-02T20:34:11.997Z,7.07
2018-02-02T20:36:40.248Z,7.35
2018-02-02T20:39:08.435Z,7.60
2018-02-02T20:41:36.632Z,8.07
2018-02-02T20:44:05.617Z,6.97
2018-02-02T20:46:33.819Z,6.30
2018-02-02T20:49:02.021Z,6.97
2018-02-02T20:51:30.338Z,7.40
2018-02-02T20:53:58.513Z,7.45
2018-02-02T20:56:26.701Z,8.82
2018-02-02T20:58:56.105Z,8.70
2018-02-02T21:01:25.120Z,8.75
2018-02-02T21:03:54.104Z,9.18
2018-02-02T21:06:22.328Z,8.45
2018-02-02T21:08:50.519Z,8.60
2018-02-02T21:11:18.721Z,8.05
2018-02-02T21:13:46.928Z,8.35
2018-02-02T21:16:15.136Z,8.80
2018-02-02T21:18:43.430Z,8.02
2018-02-02T21:21:12.403Z,8.23
2018-02-02T21:23:40.604Z,9.52
2018-02-02T21:26:09.036Z,9.00
2018-02-02T21:28:37.248Z,10.32
2018-02-02T21:31:06.197Z,11.10
2018-02-02T21:33:34.379Z,9.88
2018-02-02T21:36:02.612Z,12.23
2018-02-02T21:38:30.838Z,10.98
2018-02-02T21:40:59.073Z,12.02
2018-02-02T21:43:27.272Z,10.68
2018-02-02T21:45:55.485Z,11.32
2018-02-02T21:48:24.438Z,11.48
2018-02-02T21:50:52.619Z,10.52
2018-02-02T21:53:21.317Z,11.55
2018-02-02T21:55:49.509Z,12.40
2018-02-02T21:58:18.479Z,12.18
2018-02-02T22:00:47.088Z,13.40
2018-02-02T22:03:15.321Z,11.60
2018-02-02T22:05:43.521Z,10.95
2018-02-02T22:08:12.493Z,10.85
2018-02-02T22:10:40.693Z,11.32
2018-02-02T22:13:09.632Z,11.63
2018-02-02T22:15:37.852Z,10.95
2018-02-02T22:18:06.830Z,12.57
2018-02-02T22:20:35.054Z,11.68
2018-02-02T22:23:03.253Z,10.07
2018-02-02T22:25:31.582Z,12.00
2018-02-02T22:27:59.785Z,10.32
2018-02-02T22:30:28.560Z,10.90
2018-02-02T22:32:56.923Z,10.63
2018-02-02T22:35:25.104Z,9.65
2018-02-02T22:37:53.313Z,11.10
2018-02-02T22:40:21.540Z,11.45
2018-02-02T22:42:49.733Z,9.30
2018-02-02T22:45:17.914Z,11.35
2018-02-02T22:47:46.141Z,10.35
2018-02-02T22:50:15.115Z,11.32
2018-02-02T22:52:43.736Z,11.95
2018-02-02T22:55:12.704Z,10.73
2018-02-02T22:57:40.904Z,11.70
2018-02-02T23:00:09.859Z,12.98
2018-02-02T23:02:38.145Z,10.98
2018-02-02T23:05:06.328Z,10.60
2018-02-02T23:07:35.277Z,11.12
2018-02-02T23:10:03.504Z,11.25
2018-02-02T23:12:32.478Z,11.43
2018-02-02T23:15:01.447Z,11.00
2018-02-02T23:17:29.690Z,11.18
2018-02-02T23:19:57.944Z,12.30
2018-02-02T23:22:26.172Z,11.27
2018-02-02T23:24:55.184Z,11.45
2018-02-02T23:27:23.421Z,11.93
2018-02-02T23:29:51.598Z,12.63
2018-02-02T23:32:19.810Z,11.75
2018-02-02T23:34:48.804Z,12.77
2018-02-02T23:37:18.008Z,12.77
2018-02-02T23:39:46.957Z,11.55
2018-02-02T23:42:15.176Z,12.45
2018-02-02T23:44:44.273Z,12.30
2018-02-02T23:47:13.240Z,12.27
2018-02-02T23:49:41.449Z,10.85
2018-02-02T23:52:09.653Z,11.93
2018-02-02T23:54:37.893Z,12.48
2018-02-02T23:57:06.100Z,12.95
2018-02-02T23:59:34.620Z,12.05
